| Date | Time | Temp. (oF) | Dew Point (oF) | Rel. Hum. (%) | Press. (in.) | Wind Dir. | Wind Speed (mph) | Hourly Rainfall (in.) |
|
|---|---|---|---|---|---|---|---|---|---|
| 1 | 07/16 | 00:00 | 77 | 71 | 83 | 29.90 | S | 4 | 0.00 |
| 2 | 07/15 | 23:00 | 77 | 71 | 84 | 29.88 | S | 0 | 0.00 |
| 3 | 07/15 | 22:00 | 78 | 71 | 80 | 29.87 | S | 4 | 0.00 |
| 4 | 07/15 | 21:00 | 80 | 71 | 76 | 29.83 | S | 0 | 0.00 |
| 5 | 07/15 | 20:00 | 84 | 70 | 65 | 29.80 | S | 3 | 0.00 |
| 6 | 07/15 | 19:00 | 86 | 69 | 58 | 29.78 | SSW | 5 | 0.00 |
| 7 | 07/15 | 18:00 | 89 | 67 | 50 | 29.79 | WSW | 7 | 0.00 |
| 8 | 07/15 | 17:00 | 89 | 68 | 51 | 29.81 | SW | 7 | 0.00 |
| 9 | 07/15 | 16:00 | 87 | 75 | 69 | 29.82 | SE | 0 | 0.00 |
| 10 | 07/15 | 15:00 | 87 | 72 | 62 | 29.83 | SSE | 0 | 0.00 |
| 11 | 07/15 | 14:00 | 85 | 72 | 66 | 29.85 | S | 0 | 0.00 |
| 12 | 07/15 | 13:00 | 85 | 76 | 75 | 29.85 | SSW | 6 | 0.00 |
| 13 | 07/15 | 12:00 | 83 | 73 | 74 | 29.87 | SSW | 6 | 0.00 |
| 14 | 07/15 | 11:00 | 83 | 72 | 71 | 29.87 | NNW | 7 | 0.00 |
| 15 | 07/15 | 10:00 | 79 | 74 | 85 | 29.87 | SW | 7 | 0.00 |
| 16 | 07/15 | 09:00 | 80 | 73 | 82 | 29.86 | N | 6 | 0.00 |
| 17 | 07/15 | 08:00 | 77 | 75 | 94 | 29.84 | WSW | 3 | 0.00 |
| 18 | 07/15 | 07:00 | 74 | 73 | 99 | 29.83 | SSE | 0 | 0.00 |
| 19 | 07/15 | 06:00 | 74 | 73 | 100 | 29.82 | SSW | 0 | 0.00 |
| 20 | 07/15 | 05:00 | 74 | 73 | 100 | 29.81 | SSW | 3 | 0.00 |
| 21 | 07/15 | 04:00 | 75 | 75 | 100 | 29.79 | SSW | 1 | 0.00 |
| 22 | 07/15 | 03:00 | 74 | 73 | 100 | 29.77 | SSW | 0 | 0.00 |
| 23 | 07/15 | 02:00 | 76 | 75 | 98 | 29.77 | S | 0 | 0.00 |
| 24 | 07/15 | 01:00 | 77 | 74 | 92 | 29.78 | SW | 0 | 0.00 |